Time;durP1;ratioP1;P1;durP2;ratioP2;P2;SDS_P1;SDS_P2;PMS_P1;PMS_P2;Temp;Humidity;BMP_temperature;BMP_pressure;BME280_temperature;BME280_humidity;BME280_pressure;Samples;Min_cycle;Max_cycle;Signal;HPM_P1;HPM_P2
2023/03/10 00:00:36;;;;;;;3.80;0.50;;;9.30;93.20;;;;;;5069133;28;20645;-71
2023/03/10 00:03:04;;;;;;;1.23;0.77;;;9.30;93.40;;;;;;5069879;28;20621;-71
2023/03/10 00:05:31;;;;;;;0.40;0.40;;;9.30;93.60;;;;;;5069108;28;21028;-71
2023/03/10 00:07:58;;;;;;;2.20;0.93;;;9.30;93.80;;;;;;5069757;28;20648;-71
2023/03/10 00:10:25;;;;;;;5.93;0.80;;;9.30;93.80;;;;;;5068228;28;20645;-71
2023/03/10 00:12:52;;;;;;;1.27;0.80;;;9.30;93.70;;;;;;5070098;28;20976;-70
2023/03/10 00:15:18;;;;;;;1.57;0.80;;;9.30;93.80;;;;;;5068957;28;20641;-71
2023/03/10 00:17:48;;;;;;;0.50;0.50;;;9.30;93.50;;;;;;5055001;28;20716;-71
2023/03/10 00:20:17;;;;;;;1.13;0.60;;;9.20;93.60;;;;;;5059026;28;20673;-70
2023/03/10 00:22:43;;;;;;;1.17;1.07;;;9.20;93.60;;;;;;5069283;28;20736;-71
2023/03/10 00:25:11;;;;;;;1.60;0.87;;;9.00;98.30;;;;;;5068881;28;20617;-71
2023/03/10 00:27:38;;;;;;;1.47;0.43;;;9.20;93.50;;;;;;5069260;28;20632;-70
2023/03/10 00:30:06;;;;;;;1.20;0.90;;;9.20;93.40;;;;;;5068373;28;20610;-71
2023/03/10 00:32:34;;;;;;;1.20;0.77;;;9.20;93.00;;;;;;5069630;28;20628;-70
2023/03/10 00:35:01;;;;;;;0.70;0.60;;;9.20;93.20;;;;;;5057979;28;20622;-71
2023/03/10 00:37:29;;;;;;;1.50;1.13;;;8.90;96.80;;;;;;5068607;28;20649;-71
2023/03/10 00:39:56;;;;;;;0.70;0.67;;;9.20;93.10;;;;;;5068500;28;21223;-71
2023/03/10 00:42:23;;;;;;;1.80;0.80;;;9.20;93.30;;;;;;5066975;28;20868;-71
2023/03/10 00:44:50;;;;;;;1.53;0.60;;;9.20;93.70;;;;;;5069885;28;20620;-70
2023/03/10 00:47:17;;;;;;;0.40;0.37;;;9.20;93.80;;;;;;5068606;28;20660;-71
2023/03/10 00:49:43;;;;;;;2.87;0.47;;;9.20;94.00;;;;;;5067865;28;20633;-70
2023/03/10 00:52:10;;;;;;;0.63;0.63;;;9.20;94.20;;;;;;5069246;28;20649;-71
2023/03/10 00:54:40;;;;;;;0.50;0.40;;;9.20;94.30;;;;;;5070285;28;21148;-70
2023/03/10 00:57:07;;;;;;;0.40;0.40;;;9.10;99.80;;;;;;5069906;28;20724;-70
2023/03/10 00:59:34;;;;;;;0.40;0.33;;;9.20;94.60;;;;;;5068792;28;20665;-71
2023/03/10 01:02:01;;;;;;;0.50;0.50;;;9.20;94.60;;;;;;5069254;28;20653;-71
2023/03/10 01:04:28;;;;;;;2.83;2.10;;;9.20;94.90;;;;;;5069514;28;20637;-70
2023/03/10 01:06:55;;;;;;;0.40;0.30;;;9.20;94.80;;;;;;5068906;28;20646;-71
2023/03/10 01:09:21;;;;;;;0.60;0.60;;;9.20;94.80;;;;;;5069240;28;20618;-71
2023/03/10 01:11:50;;;;;;;1.80;0.80;;;9.20;95.10;;;;;;5069450;28;20745;-71
2023/03/10 01:14:17;;;;;;;3.50;0.73;;;9.20;95.30;;;;;;5070036;28;21204;-70
2023/03/10 01:16:44;;;;;;;0.40;0.23;;;9.20;95.20;;;;;;5069208;28;20653;-71
2023/03/10 01:19:11;;;;;;;0.50;0.50;;;9.20;99.90;;;;;;5066073;28;20664;-70
2023/03/10 01:21:38;;;;;;;0.40;0.33;;;9.20;95.20;;;;;;5059900;28;20728;-71
2023/03/10 01:24:06;;;;;;;0.50;0.37;;;9.20;95.10;;;;;;5070471;28;20625;-71
2023/03/10 01:26:33;;;;;;;1.83;0.60;;;9.10;95.10;;;;;;5069231;28;20648;-71
2023/03/10 01:29:02;;;;;;;0.53;0.53;;;9.10;95.20;;;;;;5068569;28;20644;-70
2023/03/10 01:31:28;;;;;;;0.40;0.30;;;9.10;95.40;;;;;;5068439;28;20648;-70
2023/03/10 01:33:55;;;;;;;0.50;0.40;;;8.80;99.90;;;;;;5063549;28;20625;-71
2023/03/10 01:36:25;;;;;;;0.40;0.33;;;8.50;99.90;;;;;;5069174;28;20641;-70
2023/03/10 01:38:52;;;;;;;0.30;0.30;;;;;;;;;;5068816;28;20622;-71
2023/03/10 01:41:19;;;;;;;0.47;0.47;;;9.10;95.10;;;;;;5068915;28;21013;-69
2023/03/10 01:43:48;;;;;;;0.43;0.30;;;9.00;95.30;;;;;;5069510;28;20628;-71
2023/03/10 01:46:39;;;;;;;0.50;0.50;;;9.00;95.40;;;;;;5068797;28;20656;-71
2023/03/10 01:49:15;;;;;;;0.60;0.50;;;9.00;95.30;;;;;;5067230;28;20606;-70
2023/03/10 01:51:46;;;;;;;2.03;1.47;;;9.00;95.40;;;;;;5068965;28;20687;-70
2023/03/10 01:54:18;;;;;;;0.60;0.33;;;9.00;95.10;;;;;;5069505;28;20632;-70
2023/03/10 01:56:46;;;;;;;0.90;0.40;;;8.90;94.80;;;;;;5067207;28;20653;-71
2023/03/10 01:59:14;;;;;;;0.33;0.30;;;8.90;95.00;;;;;;5068341;28;21041;-70
2023/03/10 02:01:42;;;;;;;1.27;1.17;;;9.00;94.70;;;;;;5068474;28;20646;-71
2023/03/10 02:04:16;;;;;;;0.37;0.33;;;9.00;94.80;;;;;;5069875;28;20621;-70
2023/03/10 02:06:45;;;;;;;0.60;0.30;;;9.00;95.00;;;;;;5068814;28;20650;-69
2023/03/10 02:09:14;;;;;;;1.47;1.10;;;9.10;95.00;;;;;;5067353;28;20623;-70
2023/03/10 02:11:42;;;;;;;0.47;0.47;;;9.20;95.00;;;;;;5069123;28;20665;-70
2023/03/10 02:14:09;;;;;;;0.30;0.30;;;9.20;94.80;;;;;;5069401;28;21222;-70
2023/03/10 02:16:37;;;;;;;0.50;0.50;;;9.20;95.20;;;;;;5069022;28;20670;-69
2023/03/10 02:19:13;;;;;;;0.40;0.40;;;9.20;95.10;;;;;;5068443;28;20704;-70
2023/03/10 02:21:48;;;;;;;3.60;1.90;;;9.20;95.40;;;;;;5068140;28;20653;-70
2023/03/10 02:24:24;;;;;;;1.60;0.90;;;9.20;95.80;;;;;;5072217;28;20601;-70
2023/03/10 02:26:58;;;;;;;0.40;0.40;;;9.20;96.20;;;;;;5071862;28;20710;-70
2023/03/10 02:29:32;;;;;;;0.30;0.27;;;9.20;96.60;;;;;;5072534;28;20617;-70
2023/03/10 02:31:59;;;;;;;0.40;0.30;;;9.20;97.00;;;;;;5071430;28;20653;-70
2023/03/10 02:34:27;;;;;;;0.30;0.20;;;9.20;97.10;;;;;;5063093;28;20650;-70
2023/03/10 02:36:55;;;;;;;0.40;0.30;;;9.20;97.40;;;;;;5071939;28;21037;-70
2023/03/10 02:39:23;;;;;;;0.40;0.37;;;9.20;97.80;;;;;;5071592;28;20770;-70
2023/03/10 02:41:50;;;;;;;0.30;0.20;;;9.10;98.10;;;;;;5071476;28;21089;-70
2023/03/10 02:44:21;;;;;;;4.47;0.63;;;9.10;98.40;;;;;;5072885;28;20632;-70
2023/03/10 02:46:51;;;;;;;0.60;0.30;;;9.10;98.50;;;;;;5071843;28;20648;-70
2023/03/10 02:49:21;;;;;;;1.17;0.90;;;9.00;98.70;;;;;;5070255;28;20661;-70
2023/03/10 02:51:48;;;;;;;0.30;0.20;;;9.00;99.00;;;;;;5071798;28;20643;-70
2023/03/10 02:54:16;;;;;;;0.30;0.30;;;9.00;99.30;;;;;;5072399;28;21217;-70
2023/03/10 02:56:45;;;;;;;0.30;0.30;;;9.00;99.50;;;;;;5071729;28;20654;-71
2023/03/10 02:59:15;;;;;;;0.30;0.20;;;8.90;99.90;;;;;;5070294;28;20636;-70
2023/03/10 03:01:42;;;;;;;0.50;0.30;;;8.90;99.90;;;;;;5071580;28;20641;-70
2023/03/10 03:04:10;;;;;;;0.30;0.20;;;8.90;99.90;;;;;;5072033;28;21224;-70
2023/03/10 03:06:38;;;;;;;0.30;0.20;;;8.90;99.90;;;;;;5071718;28;20640;-70
2023/03/10 03:09:05;;;;;;;0.60;0.50;;;8.90;99.90;;;;;;5070720;28;20704;-70
2023/03/10 03:11:32;;;;;;;0.60;0.40;;;8.90;99.90;;;;;;5071163;28;20692;-70
2023/03/10 03:13:59;;;;;;;0.30;0.27;;;8.80;99.90;;;;;;5072468;28;20617;-70
2023/03/10 03:16:26;;;;;;;0.50;0.27;;;8.80;99.90;;;;;;5071125;28;20734;-70
2023/03/10 03:18:53;;;;;;;0.90;0.90;;;8.80;99.90;;;;;;5071029;28;20601;-70
2023/03/10 03:21:21;;;;;;;0.50;0.20;;;8.80;99.90;;;;;;5059691;28;20755;-70
2023/03/10 03:23:49;;;;;;;0.40;0.37;;;8.80;99.90;;;;;;5071557;28;20664;-70
2023/03/10 03:26:19;;;;;;;0.30;0.30;;;8.80;99.90;;;;;;5070880;28;20698;-70
2023/03/10 03:28:48;;;;;;;0.87;0.37;;;8.80;99.90;;;;;;5070571;28;20725;-70
2023/03/10 03:31:17;;;;;;;1.73;0.37;;;8.90;99.90;;;;;;5070679;28;20657;-70
2023/03/10 03:33:45;;;;;;;0.30;0.20;;;8.80;99.90;;;;;;5057436;28;21032;-70
2023/03/10 03:36:12;;;;;;;0.40;0.20;;;8.80;99.90;;;;;;5071123;28;20649;-70
2023/03/10 03:38:43;;;;;;;0.40;0.40;;;8.80;99.90;;;;;;5069866;28;20629;-70
2023/03/10 03:41:10;;;;;;;0.30;0.20;;;;;;;;;;5070571;28;20665;-70
2023/03/10 03:43:39;;;;;;;0.30;0.20;;;8.80;99.90;;;;;;5071916;28;20621;-70
2023/03/10 03:46:06;;;;;;;0.30;0.20;;;8.70;99.90;;;;;;5071299;28;20664;-70
2023/03/10 03:48:33;;;;;;;1.60;0.30;;;8.80;99.90;;;;;;5070051;28;20633;-70
2023/03/10 03:51:01;;;;;;;0.30;0.20;;;8.80;99.90;;;;;;5071215;28;21560;-70
2023/03/10 03:53:30;;;;;;;0.30;0.20;;;8.80;99.90;;;;;;5069712;28;20972;-69
2023/03/10 03:55:58;;;;;;;0.30;0.30;;;8.80;99.90;;;;;;5070927;28;21276;-70
2023/03/10 03:58:26;;;;;;;0.30;0.20;;;8.70;99.90;;;;;;5069896;28;20733;-70
2023/03/10 04:00:54;;;;;;;0.30;0.20;;;8.80;99.90;;;;;;5070705;28;20673;-70
2023/03/10 04:03:21;;;;;;;0.70;0.40;;;8.70;99.90;;;;;;5070632;28;20617;-70
2023/03/10 04:05:48;;;;;;;0.30;0.20;;;8.70;99.90;;;;;;5069974;28;20687;-70
2023/03/10 04:08:17;;;;;;;0.30;0.20;;;8.70;99.90;;;;;;5069930;28;20633;-71
2023/03/10 04:10:50;;;;;;;0.40;0.20;;;8.70;99.90;;;;;;5070102;28;21238;-71
2023/03/10 04:13:18;;;;;;;0.40;0.30;;;8.90;99.90;;;;;;5070935;28;21013;-70
2023/03/10 04:15:45;;;;;;;0.30;0.20;;;8.80;99.90;;;;;;5070263;28;20748;-70
2023/03/10 04:18:12;;;;;;;0.50;0.40;;;8.80;99.90;;;;;;5069565;28;20653;-70
2023/03/10 04:20:39;;;;;;;0.30;0.20;;;8.70;99.90;;;;;;5070177;28;20692;-70
2023/03/10 04:23:06;;;;;;;0.40;0.30;;;8.70;99.90;;;;;;5070585;28;20632;-70
2023/03/10 04:25:33;;;;;;;0.30;0.20;;;;;;;;;;5070133;28;20653;-70
2023/03/10 04:28:00;;;;;;;1.03;0.50;;;8.90;99.90;;;;;;5069738;28;21174;-69
2023/03/10 04:30:28;;;;;;;0.50;0.40;;;8.40;99.90;;;;;;5069667;28;20641;-70
2023/03/10 04:32:57;;;;;;;0.50;0.50;;;8.50;99.90;;;;;;5067211;28;20628;-70
2023/03/10 04:35:25;;;;;;;0.30;0.20;;;;;;;;;;5068852;28;21194;-70
2023/03/10 04:37:51;;;;;;;0.30;0.20;;;8.50;99.90;;;;;;5070200;28;20656;-70
2023/03/10 04:40:19;;;;;;;0.70;0.30;;;8.60;99.90;;;;;;5068539;28;20653;-70
2023/03/10 04:42:46;;;;;;;0.30;0.13;;;8.60;99.90;;;;;;5070157;28;20618;-71
2023/03/10 04:45:13;;;;;;;0.30;0.30;;;8.60;99.90;;;;;;5070018;28;20624;-70
2023/03/10 04:47:42;;;;;;;0.43;0.30;;;8.50;99.90;;;;;;5070120;28;20970;-70
2023/03/10 04:50:11;;;;;;;0.60;0.60;;;8.60;99.90;;;;;;5069302;28;20622;-69
2023/03/10 04:52:38;;;;;;;0.30;0.20;;;8.60;99.90;;;;;;5069340;28;20708;-70
2023/03/10 04:55:06;;;;;;;0.30;0.30;;;8.60;99.90;;;;;;5069958;28;20640;-70
2023/03/10 04:57:33;;;;;;;0.43;0.33;;;8.60;99.90;;;;;;5069746;28;20625;-71
2023/03/10 04:59:59;;;;;;;1.07;0.60;;;8.70;99.90;;;;;;5068540;28;20649;-70
2023/03/10 05:02:26;;;;;;;0.57;0.33;;;8.60;99.90;;;;;;5069923;28;20646;-70
2023/03/10 05:04:54;;;;;;;0.30;0.20;;;8.70;99.90;;;;;;5070194;28;20725;-70
2023/03/10 05:07:21;;;;;;;0.30;0.20;;;8.60;99.90;;;;;;5069440;28;20719;-70
2023/03/10 05:09:48;;;;;;;0.57;0.20;;;8.60;99.90;;;;;;5068836;28;20633;-69
2023/03/10 05:12:15;;;;;;;0.60;0.50;;;8.50;99.90;;;;;;5069080;28;20652;-70
2023/03/10 05:14:41;;;;;;;0.30;0.20;;;8.40;99.90;;;;;;5070019;28;20716;-70
2023/03/10 05:17:08;;;;;;;0.30;0.30;;;8.40;99.90;;;;;;5069669;28;20649;-70
2023/03/10 05:19:35;;;;;;;0.40;0.30;;;8.30;99.90;;;;;;5067094;28;20629;-70
2023/03/10 05:22:04;;;;;;;1.00;0.63;;;8.30;99.90;;;;;;5069071;28;21234;-70
2023/03/10 05:24:31;;;;;;;0.77;0.77;;;8.30;99.90;;;;;;5070398;28;21029;-69
2023/03/10 05:27:01;;;;;;;0.40;0.20;;;8.40;99.90;;;;;;5068439;28;20645;-70
2023/03/10 05:29:28;;;;;;;0.93;0.40;;;8.30;99.90;;;;;;5069259;28;20613;-69
2023/03/10 05:31:55;;;;;;;0.97;0.43;;;8.30;99.90;;;;;;5068840;28;20635;-70
2023/03/10 05:34:22;;;;;;;0.50;0.50;;;8.20;99.90;;;;;;5066507;28;20641;-70
2023/03/10 05:36:49;;;;;;;0.50;0.40;;;8.30;99.90;;;;;;5068984;28;20645;-70
2023/03/10 05:39:17;;;;;;;0.30;0.20;;;8.10;99.90;;;;;;5068334;28;20622;-70
2023/03/10 05:41:44;;;;;;;1.90;1.70;;;8.20;99.90;;;;;;5068082;28;20657;-70
2023/03/10 05:44:11;;;;;;;0.30;0.20;;;8.20;99.90;;;;;;5069898;28;20618;-69
2023/03/10 05:46:38;;;;;;;0.30;0.20;;;8.20;99.90;;;;;;5069822;28;20653;-70
2023/03/10 05:49:05;;;;;;;0.40;0.20;;;8.40;99.90;;;;;;5068228;28;20623;-70
2023/03/10 05:51:31;;;;;;;0.40;0.30;;;8.20;99.90;;;;;;5069605;28;20655;-70
2023/03/10 05:53:58;;;;;;;0.30;0.10;;;8.40;99.90;;;;;;5068753;28;21205;-70
2023/03/10 05:56:26;;;;;;;0.50;0.43;;;8.40;99.90;;;;;;5068935;28;20649;-70
2023/03/10 05:58:53;;;;;;;2.60;0.77;;;8.40;99.90;;;;;;5070474;28;20628;-69
2023/03/10 06:01:20;;;;;;;0.30;0.10;;;8.50;99.90;;;;;;5073249;28;20734;-69
2023/03/10 06:03:47;;;;;;;0.40;0.20;;;8.50;99.90;;;;;;5073025;28;20625;-70
2023/03/10 06:06:14;;;;;;;0.30;0.30;;;8.50;99.90;;;;;;5072759;28;20648;-70
2023/03/10 06:08:41;;;;;;;0.30;0.20;;;8.50;99.90;;;;;;5066345;28;20629;-70
2023/03/10 06:11:09;;;;;;;1.23;0.40;;;8.70;99.90;;;;;;5072539;28;20646;-71
2023/03/10 06:13:37;;;;;;;0.63;0.63;;;8.50;99.90;;;;;;5072407;28;20780;-71
2023/03/10 06:16:06;;;;;;;0.30;0.20;;;8.50;99.90;;;;;;5071943;28;20667;-72
2023/03/10 06:18:33;;;;;;;0.83;0.83;;;8.30;99.90;;;;;;5072036;28;20962;-71
2023/03/10 06:21:01;;;;;;;0.83;0.60;;;;;;;;;;5071996;28;20679;-72
2023/03/10 06:23:28;;;;;;;0.30;0.20;;;8.20;99.90;;;;;;5072488;28;20624;-71
2023/03/10 06:25:57;;;;;;;2.00;0.30;;;8.20;99.90;;;;;;5071050;28;20649;-71
2023/03/10 06:28:24;;;;;;;0.37;0.20;;;8.10;99.90;;;;;;5070917;28;20633;-72
2023/03/10 06:30:55;;;;;;;0.30;0.20;;;8.10;99.90;;;;;;5071805;28;20648;-72
2023/03/10 06:33:22;;;;;;;0.30;0.20;;;8.00;99.90;;;;;;5065984;28;20616;-71
2023/03/10 06:35:49;;;;;;;0.82;0.30;;;7.70;99.90;;;;;;5061715;28;20231;-73
2023/03/10 06:38:16;;;;;;;0.35;0.25;;;8.00;99.90;;;;;;5069069;28;20668;-72
2023/03/10 06:40:43;;;;;;;0.30;0.20;;;7.70;99.90;;;;;;5071511;28;20656;-71
2023/03/10 06:43:10;;;;;;;0.30;0.20;;;7.90;99.90;;;;;;5070909;28;20203;-71
2023/03/10 06:45:40;;;;;;;0.30;0.20;;;7.90;99.90;;;;;;5071753;28;20219;-71
2023/03/10 06:48:08;;;;;;;0.30;0.20;;;7.90;99.90;;;;;;5070586;28;20671;-72
2023/03/10 06:50:35;;;;;;;0.30;0.20;;;7.80;99.90;;;;;;5071777;28;20222;-72
2023/03/10 06:53:02;;;;;;;0.30;0.17;;;7.80;99.90;;;;;;5071933;28;20205;-72
2023/03/10 06:55:29;;;;;;;0.30;0.30;;;7.80;99.90;;;;;;5071737;28;20673;-72
2023/03/10 06:57:56;;;;;;;0.30;0.20;;;7.30;99.90;;;;;;5071674;28;20191;-73
2023/03/10 07:00:23;;;;;;;0.30;0.10;;;7.90;99.90;;;;;;5069531;28;20748;-73
2023/03/10 07:02:49;;;;;;;0.30;0.10;;;8.00;99.90;;;;;;5070487;28;20621;-73
2023/03/10 07:05:18;;;;;;;0.30;0.20;;;8.10;99.90;;;;;;5072194;28;20963;-72
2023/03/10 07:07:45;;;;;;;0.30;0.20;;;8.20;99.90;;;;;;5071653;28;20667;-72
2023/03/10 07:10:14;;;;;;;0.43;0.40;;;8.10;99.90;;;;;;5069417;28;20634;-73
2023/03/10 07:12:41;;;;;;;0.30;0.20;;;8.20;99.90;;;;;;5067379;28;20637;-73
2023/03/10 07:15:09;;;;;;;0.60;0.40;;;8.40;99.90;;;;;;5071609;28;20704;-72
2023/03/10 07:17:36;;;;;;;6.23;0.80;;;8.30;99.90;;;;;;5069502;28;20625;-71
2023/03/10 07:20:03;;;;;;;0.40;0.33;;;8.30;99.90;;;;;;5061232;28;20969;-72
2023/03/10 07:22:31;;;;;;;0.93;0.77;;;8.20;99.90;;;;;;5071170;28;20773;-72
2023/03/10 07:24:59;;;;;;;0.50;0.30;;;8.20;99.90;;;;;;5072080;28;20622;-72
2023/03/10 07:27:25;;;;;;;0.30;0.30;;;8.20;99.90;;;;;;5071347;28;20637;-72
2023/03/10 07:29:52;;;;;;;2.17;0.80;;;8.20;99.90;;;;;;5066957;28;20632;-72
2023/03/10 07:32:19;;;;;;;1.37;1.27;;;8.30;99.90;;;;;;5072324;28;20651;-72
2023/03/10 07:34:46;;;;;;;0.53;0.53;;;8.30;99.90;;;;;;5067491;28;20632;-72
2023/03/10 07:37:12;;;;;;;0.40;0.40;;;8.30;99.90;;;;;;5068383;28;20653;-72
2023/03/10 07:39:46;;;;;;;0.63;0.43;;;8.40;99.90;;;;;;5071442;28;20629;-74
2023/03/10 07:42:12;;;;;;;0.37;0.30;;;8.40;99.90;;;;;;5066384;28;20658;-70
2023/03/10 07:44:39;;;;;;;1.23;0.83;;;9.20;99.90;;;;;;5065782;28;20626;-70
2023/03/10 07:47:06;;;;;;;1.10;1.00;;;8.40;99.90;;;;;;5070630;28;20653;-70
2023/03/10 07:49:33;;;;;;;0.80;0.70;;;8.50;99.90;;;;;;5070877;28;20632;-70
2023/03/10 07:52:00;;;;;;;2.60;0.87;;;8.50;99.90;;;;;;5069909;28;20657;-70
2023/03/10 07:54:27;;;;;;;0.70;0.37;;;8.80;99.90;;;;;;5071308;28;21028;-69
2023/03/10 07:56:55;;;;;;;0.43;0.43;;;8.60;99.90;;;;;;5070293;28;20752;-70
2023/03/10 07:59:21;;;;;;;1.33;0.70;;;8.20;99.90;;;;;;5069857;28;20843;-70
2023/03/10 08:01:49;;;;;;;0.60;0.53;;;8.60;99.90;;;;;;5069893;28;20704;-70
2023/03/10 08:04:15;;;;;;;2.20;0.67;;;8.60;99.90;;;;;;5071294;28;20625;-70
2023/03/10 08:06:42;;;;;;;0.53;0.50;;;8.60;99.90;;;;;;5070213;28;20757;-71
2023/03/10 08:09:09;;;;;;;0.57;0.40;;;8.50;99.90;;;;;;5070465;28;21205;-71
2023/03/10 08:11:36;;;;;;;0.40;0.30;;;8.30;99.90;;;;;;5069360;28;20744;-71
2023/03/10 08:14:04;;;;;;;0.30;0.20;;;8.50;99.90;;;;;;5071108;28;20628;-71
2023/03/10 08:16:31;;;;;;;0.40;0.20;;;8.40;99.90;;;;;;5069973;28;20780;-72
2023/03/10 08:18:58;;;;;;;0.30;0.20;;;;;;;;;;5070273;28;20628;-71
2023/03/10 08:21:25;;;;;;;0.40;0.30;;;8.20;99.90;;;;;;5069194;28;20673;-72
2023/03/10 08:23:51;;;;;;;0.30;0.20;;;8.00;99.90;;;;;;5070190;28;21452;-70
2023/03/10 08:26:19;;;;;;;0.30;0.20;;;8.00;99.90;;;;;;5068075;28;20219;-70
2023/03/10 08:28:46;;;;;;;0.30;0.20;;;7.90;99.90;;;;;;5069293;28;20621;-72
2023/03/10 08:31:16;;;;;;;0.30;0.20;;;7.90;99.90;;;;;;5068988;28;20219;-72
2023/03/10 08:33:44;;;;;;;0.30;0.20;;;7.90;99.90;;;;;;5056179;28;20636;-72
2023/03/10 08:36:14;;;;;;;0.37;0.20;;;7.90;99.90;;;;;;5069192;28;20748;-71
2023/03/10 08:38:41;;;;;;;2.30;1.10;;;7.90;99.90;;;;;;5067545;28;20613;-70
2023/03/10 08:41:09;;;;;;;0.30;0.20;;;7.90;99.90;;;;;;5068575;28;20657;-69
2023/03/10 08:43:37;;;;;;;0.30;0.20;;;7.80;99.90;;;;;;5070451;28;20641;-70
2023/03/10 08:46:04;;;;;;;0.30;0.20;;;7.80;99.90;;;;;;5068322;28;20736;-69
2023/03/10 08:48:32;;;;;;;0.30;0.20;;;7.80;99.90;;;;;;5067722;28;20671;-70
2023/03/10 08:50:59;;;;;;;0.30;0.30;;;8.00;99.90;;;;;;5069464;28;20642;-70
2023/03/10 08:53:26;;;;;;;0.40;0.40;;;8.30;99.90;;;;;;5067054;28;20747;-70
2023/03/10 08:55:53;;;;;;;0.40;0.40;;;8.50;99.90;;;;;;5068733;28;20219;-69
2023/03/10 08:58:20;;;;;;;0.93;0.87;;;8.30;99.90;;;;;;5068637;28;20748;-70
2023/03/10 09:00:47;;;;;;;1.30;0.53;;;8.30;99.90;;;;;;5068043;28;21228;-70
2023/03/10 09:03:14;;;;;;;0.40;0.30;;;8.40;99.90;;;;;;5070058;28;20761;-70
2023/03/10 09:05:43;;;;;;;0.57;0.50;;;8.40;99.90;;;;;;5068839;28;20652;-70
2023/03/10 09:08:09;;;;;;;0.30;0.30;;;8.50;99.90;;;;;;5068641;28;20629;-70
2023/03/10 09:10:37;;;;;;;0.40;0.40;;;8.50;99.90;;;;;;5069370;28;20652;-69
2023/03/10 09:13:04;;;;;;;0.80;0.40;;;8.70;99.90;;;;;;5069515;28;20708;-70
2023/03/10 09:15:33;;;;;;;0.80;0.70;;;8.80;99.90;;;;;;5068444;28;20744;-70
2023/03/10 09:18:00;;;;;;;0.30;0.20;;;8.90;99.90;;;;;;5069376;28;20620;-70
2023/03/10 09:20:27;;;;;;;0.60;0.30;;;9.00;99.90;;;;;;5067942;28;21391;-70
2023/03/10 09:22:56;;;;;;;0.40;0.40;;;9.20;99.90;;;;;;5069269;28;20672;-70
2023/03/10 09:25:23;;;;;;;0.30;0.20;;;9.40;99.90;;;;;;5068638;28;20634;-70
2023/03/10 09:27:49;;;;;;;0.30;0.20;;;9.70;99.90;;;;;;5069265;28;20678;-69
2023/03/10 09:30:16;;;;;;;0.43;0.30;;;9.60;99.90;;;;;;5067837;28;20975;-69
2023/03/10 09:32:44;;;;;;;1.53;0.60;;;9.70;99.90;;;;;;5069862;28;20662;-69
2023/03/10 09:35:11;;;;;;;0.30;0.20;;;9.90;99.90;;;;;;5069552;28;20629;-69
2023/03/10 09:37:38;;;;;;;0.40;0.30;;;10.00;99.90;;;;;;5073179;28;20647;-69
2023/03/10 09:40:09;;;;;;;0.73;0.47;;;10.10;99.90;;;;;;5072077;28;20625;-69
2023/03/10 09:42:40;;;;;;;0.40;0.20;;;10.10;99.90;;;;;;5072493;28;20672;-69
2023/03/10 09:45:19;;;;;;;0.30;0.30;;;10.10;99.90;;;;;;5073213;28;21213;-70
2023/03/10 09:47:57;;;;;;;0.30;0.20;;;10.40;99.90;;;;;;5061916;28;20617;-69
2023/03/10 09:50:32;;;;;;;0.50;0.30;;;10.20;99.90;;;;;;5072606;28;20645;-69
2023/03/10 09:53:06;;;;;;;5.90;0.83;;;10.20;99.90;;;;;;5072534;28;20625;-68
2023/03/10 09:55:39;;;;;;;1.93;0.50;;;10.20;99.90;;;;;;5072934;28;20661;-69
2023/03/10 09:58:11;;;;;;;0.50;0.30;;;10.30;99.90;;;;;;5071994;28;21021;-69
2023/03/10 10:00:42;;;;;;;0.40;0.40;;;10.20;99.90;;;;;;5072241;28;20645;-69
2023/03/10 10:03:17;;;;;;;0.60;0.37;;;10.20;99.90;;;;;;5073103;28;20665;-69
2023/03/10 10:05:45;;;;;;;1.80;0.60;;;10.40;99.90;;;;;;5072311;28;20637;-69
2023/03/10 10:08:19;;;;;;;0.30;0.20;;;10.60;99.90;;;;;;5051711;28;20622;-69
2023/03/10 10:10:53;;;;;;;1.40;0.70;;;10.60;99.90;;;;;;5066149;28;21248;-69
2023/03/10 10:13:21;;;;;;;0.60;0.40;;;10.50;99.90;;;;;;5072839;28;20625;-68
2023/03/10 10:15:52;;;;;;;0.67;0.40;;;10.40;99.90;;;;;;5071565;28;21232;-69
2023/03/10 10:18:28;;;;;;;0.30;0.20;;;10.10;99.90;;;;;;5071830;28;20712;-69
2023/03/10 10:21:00;;;;;;;0.90;0.20;;;10.20;99.90;;;;;;5064658;28;20656;-69
2023/03/10 10:23:37;;;;;;;5.90;0.60;;;10.30;99.90;;;;;;5072778;28;20661;-70
2023/03/10 10:26:11;;;;;;;0.47;0.20;;;10.10;99.90;;;;;;5072082;28;20649;-68
2023/03/10 10:28:43;;;;;;;0.40;0.30;;;10.30;99.90;;;;;;5071404;28;20620;-69
2023/03/10 10:31:16;;;;;;;0.30;0.30;;;10.30;99.90;;;;;;5070946;28;20649;-70
2023/03/10 10:33:54;;;;;;;0.40;0.20;;;10.30;99.90;;;;;;5052378;28;20625;-69
2023/03/10 10:36:24;;;;;;;4.10;0.83;;;10.40;99.90;;;;;;5069491;28;20649;-69
2023/03/10 10:38:53;;;;;;;0.53;0.53;;;10.40;99.90;;;;;;5071296;28;21151;-69
2023/03/10 10:41:26;;;;;;;0.97;0.47;;;10.40;99.90;;;;;;5071021;28;20752;-69
2023/03/10 10:43:55;;;;;;;0.40;0.40;;;10.40;99.90;;;;;;5070757;28;20668;-69
2023/03/10 10:46:25;;;;;;;0.50;0.30;;;10.40;99.90;;;;;;5071524;28;21050;-69
2023/03/10 10:49:03;;;;;;;0.30;0.20;;;10.20;99.90;;;;;;5070810;28;20629;-69
2023/03/10 10:51:33;;;;;;;0.30;0.30;;;10.20;99.90;;;;;;5072016;28;20966;-69
2023/03/10 10:54:03;;;;;;;0.50;0.50;;;10.20;99.90;;;;;;5071882;28;20657;-69
2023/03/10 10:56:31;;;;;;;0.40;0.40;;;10.40;99.90;;;;;;5071628;28;20654;-69
2023/03/10 10:59:03;;;;;;;1.37;0.53;;;10.20;99.90;;;;;;5070411;28;20621;-69
2023/03/10 11:01:47;;;;;;;0.60;0.47;;;10.10;99.90;;;;;;5071425;28;20655;-68
2023/03/10 11:04:13;;;;;;;0.40;0.20;;;10.20;99.90;;;;;;5072052;28;21056;-68
2023/03/10 11:06:40;;;;;;;0.30;0.30;;;10.20;99.90;;;;;;5070445;28;20716;-68
2023/03/10 11:09:12;;;;;;;0.30;0.10;;;10.30;99.90;;;;;;5071153;28;20625;-68
2023/03/10 11:11:49;;;;;;;0.30;0.10;;;10.40;99.90;;;;;;5071773;28;20660;-68
2023/03/10 11:14:51;;;;;;;0.77;0.77;;;10.30;99.90;;;;;;5072251;28;20979;-68
2023/03/10 11:17:24;;;;;;;2.07;0.60;;;10.20;99.90;;;;;;5071096;28;20656;-67
2023/03/10 11:19:57;;;;;;;0.40;0.20;;;10.10;99.90;;;;;;5069836;28;20622;-68
2023/03/10 11:22:33;;;;;;;0.30;0.20;;;10.10;99.90;;;;;;5071448;28;20657;-67
2023/03/10 11:25:07;;;;;;;0.30;0.20;;;10.20;99.90;;;;;;5071794;28;20999;-68
2023/03/10 11:27:48;;;;;;;0.30;0.20;;;10.00;99.90;;;;;;5070449;28;20966;-68
2023/03/10 11:30:17;;;;;;;0.50;0.30;;;10.20;99.90;;;;;;5069398;28;21248;-68
2023/03/10 11:33:04;;;;;;;0.30;0.23;;;10.40;99.90;;;;;;5070394;28;20195;-68
2023/03/10 11:35:37;;;;;;;0.30;0.20;;;10.40;99.90;;;;;;5051250;28;20998;-68
2023/03/10 11:38:17;;;;;;;1.27;0.30;;;10.30;99.90;;;;;;5069888;28;20671;-69
2023/03/10 11:40:47;;;;;;;0.30;0.30;;;10.40;99.90;;;;;;5070492;28;20637;-68
2023/03/10 11:43:27;;;;;;;0.30;0.20;;;10.50;99.90;;;;;;5070534;28;20661;-68
2023/03/10 11:45:56;;;;;;;0.57;0.40;;;10.60;99.90;;;;;;5070768;28;20648;-68
2023/03/10 11:48:36;;;;;;;0.30;0.20;;;10.60;99.90;;;;;;5069182;28;20614;-68
2023/03/10 11:51:04;;;;;;;0.30;0.13;;;10.40;99.90;;;;;;5070186;28;20675;-68
2023/03/10 11:53:38;;;;;;;0.30;0.20;;;10.30;99.90;;;;;;5070941;28;20634;-68
2023/03/10 11:56:08;;;;;;;0.73;0.70;;;10.10;99.90;;;;;;5069043;28;21244;-68
2023/03/10 11:58:45;;;;;;;0.40;0.20;;;9.90;99.90;;;;;;5069144;28;20622;-69
2023/03/10 12:01:16;;;;;;;0.87;0.80;;;9.90;99.90;;;;;;5070900;28;20657;-68
2023/03/10 12:03:50;;;;;;;0.93;0.93;;;10.00;99.90;;;;;;5070339;28;21222;-68
2023/03/10 12:06:21;;;;;;;0.30;0.20;;;10.20;99.90;;;;;;5070285;28;20637;-68
2023/03/10 12:08:50;;;;;;;0.30;0.20;;;10.20;99.90;;;;;;5070015;28;20624;-68
2023/03/10 12:11:21;;;;;;;0.30;0.27;;;10.40;99.90;;;;;;5069269;28;20671;-69
2023/03/10 12:13:52;;;;;;;0.50;0.50;;;10.70;99.90;;;;;;5070143;28;20621;-68
2023/03/10 12:16:23;;;;;;;0.40;0.37;;;11.00;99.90;;;;;;5069173;28;20992;-69
2023/03/10 12:18:50;;;;;;;0.53;0.53;;;11.00;99.90;;;;;;5069637;28;20975;-69
2023/03/10 12:21:22;;;;;;;0.47;0.23;;;11.00;99.90;;;;;;5070243;28;20646;-68
2023/03/10 12:23:51;;;;;;;0.30;0.20;;;11.00;99.90;;;;;;5069086;28;20751;-69
2023/03/10 12:26:54;;;;;;;0.87;0.60;;;11.00;99.90;;;;;;5065039;28;20649;-68
2023/03/10 12:29:39;;;;;;;0.67;0.30;;;10.90;99.10;;;;;;5064228;28;20721;-68
2023/03/10 12:32:42;;;;;;;0.80;0.67;;;10.80;99.90;;;;;;5068639;28;21035;-68
2023/03/10 12:35:31;;;;;;;0.30;0.20;;;10.90;99.90;;;;;;5050056;28;20625;-69
2023/03/10 12:38:37;;;;;;;0.30;0.20;;;10.80;99.90;;;;;;5066955;28;20629;-69
2023/03/10 12:41:04;;;;;;;0.47;0.30;;;10.60;99.90;;;;;;5062309;28;20649;-68
2023/03/10 12:44:01;;;;;;;0.93;0.33;;;10.60;99.90;;;;;;5069819;28;21016;-68
2023/03/10 12:46:48;;;;;;;0.30;0.20;;;10.50;99.90;;;;;;5069586;28;21108;-69
2023/03/10 12:49:31;;;;;;;0.50;0.33;;;10.70;99.90;;;;;;5069143;28;20622;-68
2023/03/10 12:52:14;;;;;;;1.10;0.43;;;10.60;99.90;;;;;;5069726;28;20696;-68
2023/03/10 12:54:48;;;;;;;0.30;0.30;;;10.40;99.90;;;;;;5069770;28;20649;-68
2023/03/10 12:57:22;;;;;;;0.30;0.20;;;10.50;99.90;;;;;;5067472;28;20653;-68
2023/03/10 12:59:56;;;;;;;0.43;0.43;;;10.40;99.90;;;;;;5067876;28;20634;-70
2023/03/10 13:02:29;;;;;;;0.30;0.10;;;10.50;99.90;;;;;;5067860;28;20659;-68
2023/03/10 13:05:02;;;;;;;0.30;0.20;;;10.20;99.90;;;;;;5068663;28;20625;-69
2023/03/10 13:07:29;;;;;;;0.30;0.20;;;10.00;99.90;;;;;;5067092;28;21375;-69